Time;durP1;ratioP1;P1;durP2;ratioP2;P2;SDS_P1;SDS_P2;PMS_P1;PMS_P2;Temp;Humidity;BMP_temperature;BMP_pressure;BME280_temperature;BME280_humidity;BME280_pressure;Samples;Min_cycle;Max_cycle;Signal;HPM_P1;HPM_P2
2022/06/04 00:00:45;;;;;;;12.88;6.20;;;14.90;99.90;;;;;;5013996;28;20058;-69
2022/06/04 00:03:11;;;;;;;17.10;7.03;;;14.80;99.90;;;;;;5014664;28;20104;-70
2022/06/04 00:05:40;;;;;;;11.55;6.00;;;15.00;99.90;;;;;;5014359;28;20042;-69
2022/06/04 00:08:08;;;;;;;12.95;7.18;;;14.90;99.90;;;;;;5014290;28;20121;-70
2022/06/04 00:16:10;;;;;;;11.43;5.72;;;14.80;99.90;;;;;;5014361;28;20406;-70
2022/06/04 00:18:36;;;;;;;19.20;7.05;;;14.80;99.90;;;;;;5014056;28;20128;-70
2022/06/04 00:21:02;;;;;;;18.48;6.78;;;14.60;99.90;;;;;;4996081;28;20057;-70
2022/06/04 00:23:28;;;;;;;9.23;6.47;;;14.60;99.90;;;;;;4980548;28;20057;-70
2022/06/04 00:25:56;;;;;;;15.15;6.68;;;14.60;99.90;;;;;;5013749;28;20046;-69
2022/06/04 00:28:24;;;;;;;11.00;6.15;;;14.60;99.90;;;;;;5013665;28;20096;-70
2022/06/04 00:30:51;;;;;;;13.35;7.05;;;14.60;99.90;;;;;;4996325;28;20048;-70
2022/06/04 00:33:17;;;;;;;11.75;7.15;;;14.70;99.90;;;;;;4996625;28;20082;-70
2022/06/04 00:35:45;;;;;;;15.10;7.25;;;14.70;99.90;;;;;;5013955;28;20112;-70
2022/06/04 00:38:13;;;;;;;16.67;7.82;;;14.70;99.90;;;;;;5013799;28;20386;-70
2022/06/04 00:41:20;;;;;;;11.93;6.82;;;14.70;99.90;;;;;;4996292;28;20053;-69
2022/06/04 00:43:52;;;;;;;14.52;7.10;;;14.50;99.90;;;;;;4996048;28;20133;-70
2022/06/04 00:46:32;;;;;;;11.32;7.13;;;14.50;99.90;;;;;;5013765;28;20505;-70
2022/06/04 00:48:58;;;;;;;16.23;8.60;;;14.50;99.90;;;;;;5014075;28;20125;-69
2022/06/04 00:51:25;;;;;;;14.13;8.07;;;14.50;99.90;;;;;;5013990;28;20136;-69
2022/06/04 00:53:51;;;;;;;12.00;6.85;;;14.30;99.90;;;;;;5012529;28;20049;-70
2022/06/04 00:56:45;;;;;;;18.73;9.63;;;14.30;99.90;;;;;;5013934;28;20041;-70
2022/06/04 00:59:48;;;;;;;14.32;7.68;;;14.20;99.90;;;;;;5013127;28;20042;-71
2022/06/04 01:02:33;;;;;;;16.50;8.52;;;14.20;99.90;;;;;;5013646;28;20133;-70
2022/06/04 01:05:30;;;;;;;14.90;7.95;;;14.20;99.90;;;;;;5013679;28;20050;-70
2022/06/04 01:08:42;;;;;;;16.40;8.27;;;14.10;99.90;;;;;;5013792;28;20050;-69
2022/06/04 01:11:16;;;;;;;17.40;8.18;;;14.10;99.90;;;;;;5013705;28;20133;-69
2022/06/04 01:14:04;;;;;;;17.45;8.10;;;14.20;99.90;;;;;;5013577;28;20133;-70
2022/06/04 01:16:49;;;;;;;16.77;7.25;;;14.30;99.90;;;;;;5013604;28;20050;-70
2022/06/04 01:19:36;;;;;;;19.33;9.02;;;14.40;99.90;;;;;;5013464;28;20479;-70
2022/06/04 01:22:33;;;;;;;18.60;7.72;;;14.50;99.90;;;;;;5013441;28;20429;-70
2022/06/04 01:25:15;;;;;;;24.25;9.52;;;14.50;99.90;;;;;;5013572;28;20089;-69
2022/06/04 01:27:41;;;;;;;13.80;8.02;;;14.50;99.90;;;;;;4996466;28;20104;-70
2022/06/04 01:30:15;;;;;;;20.42;8.80;;;14.30;99.90;;;;;;4996122;28;20435;-70
2022/06/04 01:32:51;;;;;;;22.17;8.73;;;14.40;99.90;;;;;;4982673;28;20045;-70
2022/06/04 01:35:28;;;;;;;21.98;9.38;;;14.40;99.90;;;;;;5017439;28;20120;-70
2022/06/04 01:38:20;;;;;;;20.63;9.10;;;14.30;99.90;;;;;;4999459;28;20046;-71
2022/06/04 01:41:04;;;;;;;14.93;8.50;;;14.10;99.90;;;;;;5017344;28;20053;-70
2022/06/04 01:43:39;;;;;;;21.60;7.80;;;13.90;99.90;;;;;;5017046;28;20053;-70
2022/06/04 01:46:51;;;;;;;15.75;7.55;;;14.00;99.90;;;;;;5016899;28;20051;-70
2022/06/04 01:49:48;;;;;;;23.35;9.85;;;14.00;99.90;;;;;;4996989;28;20062;-70
2022/06/04 01:52:19;;;;;;;20.77;9.57;;;14.00;99.90;;;;;;5000830;28;20069;-69
2022/06/04 01:54:53;;;;;;;19.65;8.48;;;13.90;99.90;;;;;;4999467;28;20595;-70
2022/06/04 01:57:32;;;;;;;18.60;8.40;;;13.90;99.90;;;;;;4998742;28;20060;-70
2022/06/04 02:00:09;;;;;;;24.00;9.70;;;13.80;99.90;;;;;;5016907;28;20069;-69
2022/06/04 02:03:01;;;;;;;17.70;8.80;;;14.00;99.90;;;;;;5016742;28;20061;-69
2022/06/04 02:05:37;;;;;;;19.77;8.63;;;14.00;99.90;;;;;;4999435;28;20076;-69
2022/06/04 02:08:06;;;;;;;18.00;8.60;;;14.00;99.90;;;;;;4999347;28;20560;-69
2022/06/04 02:10:37;;;;;;;20.25;8.90;;;14.00;99.90;;;;;;4999292;28;20057;-69
2022/06/04 02:13:08;;;;;;;15.45;8.48;;;14.00;99.90;;;;;;4999007;28;20403;-70
2022/06/04 02:15:53;;;;;;;16.52;7.72;;;13.90;99.90;;;;;;4999677;28;20057;-70
2022/06/04 02:18:19;;;;;;;17.13;7.28;;;14.00;99.90;;;;;;5016263;28;20407;-70
2022/06/04 02:20:44;;;;;;;17.05;6.82;;;14.00;99.90;;;;;;4999099;28;20049;-70
2022/06/04 02:23:11;;;;;;;17.15;7.82;;;14.00;99.90;;;;;;5016212;28;20054;-70
2022/06/04 02:25:36;;;;;;;14.90;7.20;;;14.10;99.90;;;;;;5016219;28;20046;-70
2022/06/04 02:28:06;;;;;;;19.17;8.32;;;14.10;99.90;;;;;;4998516;28;20122;-70
2022/06/04 02:30:58;;;;;;;21.25;8.43;;;14.00;99.90;;;;;;5016095;28;20376;-69
2022/06/04 02:33:50;;;;;;;19.95;7.53;;;13.90;99.90;;;;;;5016142;28;20133;-70
2022/06/04 02:36:40;;;;;;;17.95;7.70;;;13.80;99.90;;;;;;5016101;28;20060;-70
2022/06/04 02:39:18;;;;;;;20.25;9.20;;;13.80;99.90;;;;;;5015884;28;20125;-69
2022/06/04 02:42:00;;;;;;;13.60;6.85;;;13.80;99.90;;;;;;5016159;28;20399;-70
2022/06/04 02:44:29;;;;;;;16.73;6.53;;;13.80;99.90;;;;;;4997622;28;20046;-70
2022/06/04 02:47:13;;;;;;;17.15;6.97;;;13.90;99.90;;;;;;5015783;28;20042;-70
2022/06/04 02:50:00;;;;;;;15.15;6.60;;;13.90;99.90;;;;;;5015805;28;20050;-69
2022/06/04 02:52:26;;;;;;;;;;;13.70;99.90;;;;;;5016406;28;20121;-70
2022/06/04 02:55:08;;;;;;;15.70;6.93;;;13.70;99.90;;;;;;4998472;28;20408;-70
2022/06/04 02:57:39;;;;;;;13.15;6.28;;;13.60;99.90;;;;;;5015279;28;20042;-69
2022/06/04 03:00:08;;;;;;;16.42;7.40;;;13.60;99.90;;;;;;5015664;28;20097;-70
2022/06/04 03:02:35;;;;;;;12.25;6.78;;;13.60;99.90;;;;;;5015592;28;20198;-69
2022/06/04 03:05:15;;;;;;;13.95;6.55;;;13.60;99.90;;;;;;4998148;28;20057;-70
2022/06/04 03:07:44;;;;;;;14.77;5.78;;;13.80;99.90;;;;;;5015424;28;20046;-70
2022/06/04 03:10:31;;;;;;;11.90;6.25;;;13.80;99.90;;;;;;5015335;28;20046;-69
2022/06/04 03:12:57;;;;;;;11.85;5.43;;;13.70;99.90;;;;;;4998075;28;20046;-69
2022/06/04 03:15:23;;;;;;;14.98;6.82;;;13.70;99.90;;;;;;4998163;28;20104;-69
2022/06/04 03:17:50;;;;;;;13.68;5.88;;;13.60;99.90;;;;;;5014781;28;20050;-70
2022/06/04 03:20:22;;;;;;;10.82;5.47;;;13.70;99.90;;;;;;5015231;28;20053;-70
2022/06/04 03:22:49;;;;;;;11.88;5.38;;;13.90;99.90;;;;;;4997763;28;20050;-69
2022/06/04 03:25:16;;;;;;;12.48;5.63;;;13.80;99.90;;;;;;5015058;28;20108;-70
2022/06/04 03:27:41;;;;;;;12.52;5.65;;;13.90;99.90;;;;;;5014968;28;20083;-69
2022/06/04 03:30:08;;;;;;;12.18;5.00;;;13.90;99.90;;;;;;5014992;28;20081;-70
2022/06/04 03:32:34;;;;;;;12.55;5.85;;;13.90;99.90;;;;;;5014919;28;20046;-69
2022/06/04 03:35:00;;;;;;;9.88;5.85;;;13.90;99.90;;;;;;4981649;28;20052;-70
2022/06/04 03:37:26;;;;;;;14.18;5.47;;;13.80;99.90;;;;;;5015154;28;20053;-69
2022/06/04 03:39:51;;;;;;;11.35;5.15;;;13.70;99.90;;;;;;5014825;28;20402;-69
2022/06/04 03:42:17;;;;;;;11.95;4.80;;;13.50;99.90;;;;;;4997480;28;20053;-69
2022/06/04 03:44:47;;;;;;;14.95;5.10;;;13.60;99.90;;;;;;5014711;28;20054;-69
2022/06/04 03:47:16;;;;;;;11.13;4.25;;;13.60;99.90;;;;;;4997362;28;20116;-69
2022/06/04 03:49:43;;;;;;;11.25;4.85;;;13.50;99.90;;;;;;5014608;28;20049;-69
2022/06/04 03:52:10;;;;;;;10.75;5.53;;;13.60;99.90;;;;;;5014604;28;20050;-69
2022/06/04 03:54:53;;;;;;;6.90;4.30;;;13.50;99.90;;;;;;4997089;28;20540;-69
2022/06/04 03:57:39;;;;;;;7.03;4.32;;;13.50;99.90;;;;;;4996744;28;20188;-70
2022/06/04 04:00:09;;;;;;;8.50;3.63;;;13.60;99.90;;;;;;5014138;28;20506;-69
2022/06/04 04:02:36;;;;;;;8.88;4.43;;;13.50;99.90;;;;;;4997107;28;20057;-69
2022/06/04 04:05:03;;;;;;;6.15;3.90;;;13.50;99.90;;;;;;4997075;28;20054;-70
2022/06/04 04:07:29;;;;;;;8.68;4.40;;;13.60;99.90;;;;;;5014298;28;20081;-70
2022/06/04 04:09:55;;;;;;;11.45;4.53;;;13.60;99.90;;;;;;5014267;28;20147;-70
2022/06/04 04:12:21;;;;;;;10.73;4.68;;;13.60;99.90;;;;;;4980833;28;20054;-69
2022/06/04 04:14:46;;;;;;;5.22;3.88;;;13.50;99.90;;;;;;5014426;28;20479;-69
2022/06/04 04:17:12;;;;;;;11.32;4.57;;;13.40;99.90;;;;;;5014231;28;20479;-70
2022/06/04 04:19:37;;;;;;;12.32;4.70;;;13.50;99.90;;;;;;4996551;28;20065;-70
2022/06/04 04:22:03;;;;;;;11.50;4.57;;;13.70;99.90;;;;;;5014213;28;20447;-69
2022/06/04 04:24:29;;;;;;;14.80;4.68;;;13.60;99.90;;;;;;5014087;28;20093;-69
2022/06/04 04:26:55;;;;;;;8.68;4.25;;;13.50;99.90;;;;;;4996764;28;20077;-70
2022/06/04 04:29:20;;;;;;;8.40;4.15;;;13.70;99.90;;;;;;5013639;28;20399;-69
2022/06/04 04:31:46;;;;;;;8.57;4.53;;;13.70;99.90;;;;;;4997172;28;20478;-69
2022/06/04 04:34:12;;;;;;;8.05;3.60;;;13.80;99.90;;;;;;4980511;28;20100;-70
2022/06/04 04:36:38;;;;;;;7.82;4.07;;;13.90;99.90;;;;;;4996756;28;20054;-70
2022/06/04 04:39:04;;;;;;;12.30;4.63;;;13.90;99.90;;;;;;4996472;28;20053;-69
2022/06/04 04:41:29;;;;;;;9.00;4.22;;;14.00;99.90;;;;;;4996649;28;20371;-70
2022/06/04 04:43:55;;;;;;;7.75;4.05;;;14.10;99.90;;;;;;4996833;28;20077;-69
2022/06/04 04:46:21;;;;;;;8.80;4.00;;;14.20;99.90;;;;;;5013659;28;20068;-69
2022/06/04 04:48:48;;;;;;;11.57;4.50;;;14.30;99.90;;;;;;5013840;28;20129;-69
2022/06/04 04:51:17;;;;;;;11.32;4.60;;;14.30;99.90;;;;;;4996241;28;20471;-69
2022/06/04 04:53:43;;;;;;;9.95;4.72;;;14.40;99.90;;;;;;4996434;28;20050;-69
2022/06/04 04:56:10;;;;;;;9.38;4.32;;;14.30;99.90;;;;;;4996479;28;20482;-69
2022/06/04 04:58:37;;;;;;;7.88;4.15;;;14.30;99.90;;;;;;5013379;28;20034;-70
2022/06/04 05:01:03;;;;;;;6.28;4.07;;;14.50;99.90;;;;;;4996159;28;20061;-69
2022/06/04 05:03:29;;;;;;;9.07;4.60;;;14.60;99.90;;;;;;4996358;28;20422;-69
2022/06/04 05:06:03;;;;;;;7.28;4.10;;;14.80;99.90;;;;;;4996430;28;20041;-69
2022/06/04 05:08:30;;;;;;;9.20;3.85;;;14.90;99.90;;;;;;5000040;28;20061;-70
2022/06/04 05:10:56;;;;;;;9.75;4.57;;;14.90;99.90;;;;;;5017552;28;20050;-70
2022/06/04 05:13:21;;;;;;;8.25;4.53;;;14.90;99.90;;;;;;5000444;28;20046;-69
2022/06/04 05:15:47;;;;;;;7.28;4.07;;;14.90;99.90;;;;;;5017466;28;20112;-70
2022/06/04 05:18:13;;;;;;;5.25;4.05;;;14.90;99.90;;;;;;5017460;28;20490;-70
2022/06/04 05:20:41;;;;;;;12.30;4.25;;;14.80;99.90;;;;;;4999958;28;20136;-69
2022/06/04 05:23:07;;;;;;;8.25;4.10;;;14.80;99.90;;;;;;5017407;28;20085;-70
2022/06/04 05:25:33;;;;;;;8.32;4.18;;;14.90;99.90;;;;;;5000211;28;20471;-70
2022/06/04 05:27:58;;;;;;;9.48;4.20;;;14.90;99.90;;;;;;5016997;28;20050;-69
2022/06/04 05:30:24;;;;;;;5.65;3.78;;;14.60;99.90;;;;;;4999709;28;20081;-69
2022/06/04 05:32:50;;;;;;;10.10;4.70;;;14.60;99.90;;;;;;5017246;28;20050;-69
2022/06/04 05:35:15;;;;;;;9.45;4.07;;;14.60;99.90;;;;;;4999887;28;20046;-69
2022/06/04 05:37:41;;;;;;;9.13;4.70;;;14.60;99.90;;;;;;5016958;28;20045;-70
2022/06/04 05:40:08;;;;;;;8.25;4.40;;;14.90;99.90;;;;;;5017109;28;20057;-70
2022/06/04 05:42:34;;;;;;;9.02;5.13;;;15.00;99.90;;;;;;4999826;28;20053;-70
2022/06/04 05:45:02;;;;;;;9.80;4.53;;;15.10;99.90;;;;;;5017038;28;20042;-69
2022/06/04 05:47:28;;;;;;;8.70;4.47;;;15.20;99.90;;;;;;4999814;28;20053;-70
2022/06/04 05:49:54;;;;;;;7.78;4.60;;;15.00;99.90;;;;;;5016849;28;20398;-69
2022/06/04 05:52:20;;;;;;;9.20;3.85;;;15.10;99.90;;;;;;4999486;28;20053;-69
2022/06/04 05:54:46;;;;;;;11.85;4.95;;;15.20;99.90;;;;;;5000122;28;20052;-70
2022/06/04 05:57:12;;;;;;;10.93;4.95;;;15.20;99.90;;;;;;5016859;28;20141;-70
2022/06/04 05:59:37;;;;;;;8.02;5.43;;;15.30;99.90;;;;;;5016560;28;20062;-70
2022/06/04 06:02:03;;;;;;;9.30;4.43;;;15.30;99.90;;;;;;4999404;28;20054;-70
2022/06/04 06:04:31;;;;;;;9.27;4.70;;;15.20;99.90;;;;;;4999268;28;20137;-69
2022/06/04 06:06:58;;;;;;;6.35;4.30;;;15.50;99.90;;;;;;5016600;28;20056;-70
2022/06/04 06:09:25;;;;;;;7.93;4.53;;;15.60;99.90;;;;;;5016479;28;20045;-68
2022/06/04 06:11:52;;;;;;;8.30;4.28;;;15.80;99.90;;;;;;5016181;28;20498;-69
2022/06/04 06:14:18;;;;;;;7.72;4.13;;;15.80;99.90;;;;;;5016430;28;20128;-68
2022/06/04 06:16:47;;;;;;;6.38;4.03;;;15.80;99.90;;;;;;5016383;28;20054;-68
2022/06/04 06:19:14;;;;;;;9.57;4.25;;;15.90;99.90;;;;;;5016047;28;20053;-69
2022/06/04 06:21:41;;;;;;;6.90;4.10;;;15.90;99.90;;;;;;5016173;28;20096;-69
2022/06/04 06:24:09;;;;;;;6.80;3.95;;;16.10;99.90;;;;;;5016299;28;20053;-68
2022/06/04 06:26:52;;;;;;;8.25;4.07;;;16.10;99.90;;;;;;5015877;28;20505;-69
2022/06/04 06:29:18;;;;;;;10.20;4.30;;;16.10;99.90;;;;;;5016107;28;20042;-69
2022/06/04 06:31:45;;;;;;;7.28;4.30;;;16.10;99.90;;;;;;5016125;28;20050;-69
2022/06/04 06:34:11;;;;;;;8.15;4.30;;;16.20;99.90;;;;;;5016129;28;20053;-69
2022/06/04 06:36:37;;;;;;;6.65;3.83;;;16.10;99.90;;;;;;5016062;28;20046;-69
2022/06/04 06:39:04;;;;;;;6.78;4.00;;;16.10;99.90;;;;;;5015943;28;20107;-69
2022/06/04 06:41:29;;;;;;;6.53;3.85;;;16.20;99.90;;;;;;5015887;28;20049;-69
2022/06/04 06:43:55;;;;;;;7.68;4.07;;;16.30;99.90;;;;;;4998222;28;20053;-69
2022/06/04 06:46:30;;;;;;;6.93;4.15;;;16.50;99.90;;;;;;4998410;28;20052;-72
2022/06/04 06:49:05;;;;;;;4.90;3.40;;;16.40;99.90;;;;;;5015828;28;20084;-69
2022/06/04 06:51:34;;;;;;;6.82;3.55;;;16.30;99.90;;;;;;4998480;28;20089;-69
2022/06/04 06:54:00;;;;;;;6.57;3.58;;;16.50;99.90;;;;;;5015452;28;20092;-69
2022/06/04 06:56:29;;;;;;;9.50;3.80;;;16.60;99.90;;;;;;5015620;28;20042;-69
2022/06/04 06:58:55;;;;;;;6.05;3.67;;;16.80;99.90;;;;;;5014961;28;20471;-69
2022/06/04 07:01:24;;;;;;;4.45;3.22;;;17.00;99.90;;;;;;4997900;28;20088;-69
2022/06/04 07:03:49;;;;;;;6.75;3.55;;;17.00;99.90;;;;;;5015648;28;20058;-69
2022/06/04 07:06:26;;;;;;;11.77;4.00;;;17.00;99.90;;;;;;5015455;28;20379;-68
2022/06/04 07:08:51;;;;;;;8.05;3.83;;;17.10;99.90;;;;;;4998406;28;20399;-69
2022/06/04 07:11:17;;;;;;;7.15;3.65;;;17.40;99.90;;;;;;5015094;28;20045;-69
2022/06/04 07:13:43;;;;;;;9.10;4.30;;;17.50;99.90;;;;;;5014965;28;20046;-68
2022/06/04 07:16:08;;;;;;;6.25;3.90;;;17.40;99.90;;;;;;4997805;28;20568;-67
2022/06/04 07:18:34;;;;;;;6.13;3.53;;;17.40;99.90;;;;;;4997836;28;20050;-67
2022/06/04 07:21:03;;;;;;;6.28;3.80;;;17.40;99.90;;;;;;5016804;28;20483;-69
2022/06/04 07:23:33;;;;;;;4.93;3.67;;;17.40;99.90;;;;;;5018900;28;20052;-70
2022/06/04 07:26:00;;;;;;;9.25;3.80;;;17.30;99.90;;;;;;5014749;28;20525;-71
2022/06/04 07:28:25;;;;;;;8.07;3.55;;;17.40;99.90;;;;;;5014800;28;20053;-71
2022/06/04 07:30:51;;;;;;;8.68;3.65;;;17.40;99.90;;;;;;5014462;28;20049;-70
2022/06/04 07:33:16;;;;;;;7.38;3.40;;;17.30;99.90;;;;;;5015243;28;20052;-70
2022/06/04 07:35:47;;;;;;;10.02;3.72;;;17.30;99.90;;;;;;5015124;28;20041;-70
2022/06/04 07:38:13;;;;;;;7.95;3.80;;;17.30;99.90;;;;;;5014961;28;20042;-79
2022/06/04 07:40:39;;;;;;;5.53;3.13;;;17.40;99.90;;;;;;4996792;28;20058;-70
2022/06/04 07:43:05;;;;;;;6.20;3.50;;;17.50;99.90;;;;;;5014803;28;20042;-69
2022/06/04 07:45:32;;;;;;;8.15;3.35;;;17.60;99.90;;;;;;5014753;28;20077;-70
2022/06/04 07:47:58;;;;;;;8.73;3.60;;;17.90;99.90;;;;;;5014720;28;20081;-69
2022/06/04 07:50:23;;;;;;;6.07;2.97;;;17.80;99.90;;;;;;5014655;28;20088;-70
2022/06/04 07:52:49;;;;;;;5.65;3.35;;;17.60;99.90;;;;;;4997432;28;20045;-70
2022/06/04 07:55:15;;;;;;;8.65;4.13;;;17.80;99.90;;;;;;5014487;28;20046;-70
2022/06/04 07:57:41;;;;;;;5.88;3.70;;;17.70;99.90;;;;;;5014227;28;20054;-70
2022/06/04 08:00:07;;;;;;;9.27;3.90;;;17.70;99.90;;;;;;5014508;28;20393;-70
2022/06/04 08:02:33;;;;;;;6.97;3.70;;;17.90;99.90;;;;;;5014414;28;20552;-69
2022/06/04 08:04:59;;;;;;;8.52;4.03;;;18.10;99.90;;;;;;5014390;28;20128;-71
2022/06/04 08:07:24;;;;;;;9.18;4.18;;;18.30;99.90;;;;;;5014390;28;20046;-69
2022/06/04 08:09:50;;;;;;;5.55;4.13;;;18.50;99.90;;;;;;5014332;28;20053;-70
2022/06/04 08:12:18;;;;;;;9.73;4.28;;;18.30;99.90;;;;;;5013355;28;20487;-70
2022/06/04 08:14:44;;;;;;;6.45;3.65;;;18.10;99.90;;;;;;5014055;28;20054;-69
2022/06/04 08:17:10;;;;;;;7.85;3.92;;;18.20;99.90;;;;;;4996660;28;20049;-68
2022/06/04 08:19:37;;;;;;;10.25;3.47;;;18.30;99.90;;;;;;5013430;28;20042;-70
2022/06/04 08:22:04;;;;;;;6.97;3.33;;;18.30;99.90;;;;;;5014072;28;20092;-70
2022/06/04 08:24:29;;;;;;;7.18;3.40;;;18.30;99.90;;;;;;5013945;28;20100;-70
2022/06/04 08:26:58;;;;;;;6.25;3.20;;;18.30;99.90;;;;;;5013933;28;20442;-70
2022/06/04 08:29:25;;;;;;;7.93;3.10;;;18.30;99.90;;;;;;5013580;28;20375;-70
2022/06/04 08:31:50;;;;;;;6.78;3.30;;;18.50;99.90;;;;;;5014008;28;20482;-70
2022/06/04 08:34:17;;;;;;;9.00;3.75;;;18.90;99.90;;;;;;5013892;28;20054;-70
2022/06/04 08:36:42;;;;;;;8.23;3.80;;;18.80;99.90;;;;;;4996472;28;20073;-70
2022/06/04 08:39:08;;;;;;;7.25;3.10;;;18.70;99.90;;;;;;5013676;28;20091;-70
2022/06/04 08:41:55;;;;;;;6.53;3.13;;;19.10;99.90;;;;;;5012797;28;20133;-69
2022/06/04 08:44:38;;;;;;;5.85;3.40;;;19.00;99.90;;;;;;5013469;28;20486;-69
2022/06/04 08:47:25;;;;;;;5.72;3.05;;;19.10;99.90;;;;;;5013483;28;20510;-70
2022/06/04 08:49:58;;;;;;;5.63;2.85;;;19.30;99.90;;;;;;5013720;28;20046;-69
2022/06/04 08:52:35;;;;;;;5.32;3.10;;;19.20;99.90;;;;;;4980339;28;20049;-84
2022/06/04 08:58:05;;;;;;;5.32;2.88;;;18.70;99.90;;;;;;4995990;28;20191;-85
2022/06/04 09:00:37;;;;;;;8.00;3.50;;;18.50;99.90;;;;;;4996190;28;20049;-91
2022/06/04 09:03:23;;;;;;;6.60;3.38;;;18.40;99.90;;;;;;4980283;28;20253;-84
2022/06/04 09:06:12;;;;;;;6.93;3.10;;;18.20;99.90;;;;;;4996293;28;20185;-70
2022/06/04 09:09:03;;;;;;;8.55;3.50;;;18.10;99.90;;;;;;5013451;28;20053;-70
2022/06/04 09:11:54;;;;;;;4.95;2.60;;;18.50;99.90;;;;;;4994942;28;20567;-70
2022/06/04 09:14:31;;;;;;;7.22;3.38;;;18.90;99.90;;;;;;5013621;28;20140;-70
2022/06/04 09:17:05;;;;;;;5.20;2.97;;;19.00;99.90;;;;;;5013569;28;20116;-72
2022/06/04 09:19:36;;;;;;;8.85;2.78;;;19.20;99.90;;;;;;5013432;28;20506;-70
2022/06/04 09:22:09;;;;;;;7.30;3.55;;;19.30;99.90;;;;;;5013560;28;20038;-70
2022/06/04 09:24:36;;;;;;;7.82;3.30;;;19.30;99.90;;;;;;5013591;28;20056;-70
2022/06/04 09:27:12;;;;;;;5.03;2.72;;;19.30;99.90;;;;;;5013444;28;20050;-71
2022/06/04 09:29:52;;;;;;;;;;;19.40;99.90;;;;;;5013831;28;20042;-71
2022/06/04 09:32:45;;;;;;;7.80;3.13;;;19.70;99.90;;;;;;5014199;28;19975;-71
2022/06/04 09:35:21;;;;;;;4.00;2.75;;;19.70;99.90;;;;;;5013524;28;20391;-68
2022/06/04 09:37:49;;;;;;;7.28;3.15;;;19.90;99.90;;;;;;5013338;28;20060;-69
2022/06/04 09:40:22;;;;;;;3.38;2.45;;;19.90;99.90;;;;;;5013556;28;20547;-69
2022/06/04 09:42:48;;;;;;;6.13;2.72;;;19.90;99.90;;;;;;5013412;28;20124;-69
2022/06/04 09:45:27;;;;;;;5.07;2.97;;;19.80;99.90;;;;;;5013270;28;20042;-69
2022/06/04 09:47:56;;;;;;;5.40;2.78;;;19.90;99.90;;;;;;5013285;28;20125;-73
2022/06/04 09:50:30;;;;;;;5.40;2.70;;;19.90;99.90;;;;;;5013286;28;20442;-69
2022/06/04 09:53:18;;;;;;;6.45;2.67;;;20.00;99.90;;;;;;5014672;28;20045;-69
2022/06/04 09:55:58;;;;;;;7.57;2.58;;;20.30;99.90;;;;;;5016528;28;20049;-68
2022/06/04 09:58:33;;;;;;;4.72;2.60;;;20.20;99.90;;;;;;5016344;28;20069;-75
2022/06/04 10:01:06;;;;;;;3.55;2.40;;;20.40;99.90;;;;;;5016362;28;20525;-69
2022/06/04 10:03:38;;;;;;;6.38;2.90;;;20.10;99.90;;;;;;5016620;28;20077;-66
2022/06/04 10:06:12;;;;;;;6.72;2.75;;;20.00;99.90;;;;;;5016939;28;20089;-68
2022/06/04 10:11:57;;;;;;;4.25;2.50;;;20.40;99.90;;;;;;4999631;28;20062;-71
2022/06/04 10:14:38;;;;;;;5.97;2.55;;;20.50;99.80;;;;;;4983284;28;20092;-69
2022/06/04 10:17:25;;;;;;;5.22;2.42;;;20.60;99.90;;;;;;5016336;28;20057;-69
2022/06/04 10:19:52;;;;;;;5.43;2.85;;;20.70;99.90;;;;;;4988635;28;20054;-69
2022/06/04 10:22:18;;;;;;;8.93;2.83;;;20.80;99.90;;;;;;5016307;28;20049;-68
2022/06/04 10:24:49;;;;;;;5.32;2.47;;;20.60;99.90;;;;;;5016360;28;20057;-68
2022/06/04 10:27:39;;;;;;;5.85;2.65;;;21.00;99.90;;;;;;5016233;28;20453;-68
2022/06/04 10:30:24;;;;;;;7.05;2.58;;;21.10;99.90;;;;;;5015816;28;20042;-82
2022/06/04 10:33:03;;;;;;;4.78;2.90;;;20.60;99.90;;;;;;4998997;28;20050;-83
2022/06/04 10:35:44;;;;;;;5.35;3.03;;;20.40;99.90;;;;;;5016242;28;20490;-66
2022/06/04 10:38:38;;;;;;;8.80;2.78;;;20.70;99.90;;;;;;5016006;28;20045;-71
2022/06/04 10:41:15;;;;;;;6.60;2.50;;;21.30;99.90;;;;;;5016546;28;20050;-70
2022/06/04 10:44:08;;;;;;;5.70;2.75;;;21.70;99.90;;;;;;5015982;28;20060;-69
2022/06/04 10:46:39;;;;;;;5.85;2.80;;;22.00;99.90;;;;;;5015852;28;20037;-70
2022/06/04 10:49:40;;;;;;;7.10;2.90;;;22.20;99.90;;;;;;5016426;28;20093;-69
2022/06/04 10:52:28;;;;;;;6.25;2.88;;;22.40;99.90;;;;;;5015733;28;20483;-70
2022/06/04 10:55:17;;;;;;;4.18;2.20;;;22.50;99.80;;;;;;5015652;28;20061;-70
2022/06/04 10:58:13;;;;;;;6.32;2.80;;;22.50;99.90;;;;;;5015325;28;20538;-84
2022/06/04 11:00:49;;;;;;;6.15;2.60;;;22.30;99.50;;;;;;4998102;28;20046;-74
2022/06/04 11:03:25;;;;;;;5.38;2.60;;;21.30;99.90;;;;;;4997905;28;20057;-75
2022/06/04 11:06:01;;;;;;;4.95;2.60;;;21.20;99.90;;;;;;4997597;28;20104;-83
2022/06/04 11:08:32;;;;;;;5.50;2.80;;;21.10;99.80;;;;;;4998244;28;20594;-80
2022/06/04 11:11:14;;;;;;;5.10;2.45;;;21.10;99.90;;;;;;4998399;28;20042;-67
2022/06/04 11:13:49;;;;;;;3.95;2.63;;;21.40;99.90;;;;;;5016977;28;20050;-71
2022/06/04 11:16:34;;;;;;;6.53;3.00;;;22.10;99.90;;;;;;4998109;28;20049;-71
2022/06/04 11:19:06;;;;;;;5.95;2.53;;;22.50;99.70;;;;;;5014926;28;20400;-72
2022/06/04 11:21:48;;;;;;;6.22;2.70;;;22.60;99.80;;;;;;5015116;28;20056;-71
2022/06/04 11:24:20;;;;;;;4.90;2.40;;;22.80;99.60;;;;;;5015164;28;20155;-71
2022/06/04 11:26:48;;;;;;;4.68;2.67;;;23.10;99.80;;;;;;5015123;28;20045;-69
2022/06/04 11:29:14;;;;;;;5.47;2.50;;;23.20;99.50;;;;;;5014920;28;20410;-69
2022/06/04 11:31:46;;;;;;;7.47;2.88;;;23.20;99.60;;;;;;5015033;28;20057;-69
2022/06/04 11:34:50;;;;;;;6.22;2.90;;;23.30;99.50;;;;;;5014868;28;20049;-69
2022/06/04 11:37:46;;;;;;;4.80;2.65;;;23.30;99.60;;;;;;5014936;28;20050;-69
2022/06/04 11:40:38;;;;;;;3.97;2.63;;;23.40;99.40;;;;;;5014634;28;20514;-72
2022/06/04 11:43:32;;;;;;;5.22;2.80;;;23.40;99.60;;;;;;4997427;28;20085;-71
2022/06/04 11:46:07;;;;;;;5.20;2.80;;;23.40;99.90;;;;;;5014858;28;20133;-71
2022/06/04 11:48:36;;;;;;;8.32;3.22;;;23.60;99.70;;;;;;5014805;28;20037;-71
2022/06/04 11:51:14;;;;;;;5.07;2.97;;;23.90;99.40;;;;;;5014634;28;20096;-71
2022/06/04 11:53:50;;;;;;;3.40;2.63;;;24.00;99.30;;;;;;5014705;28;20089;-71
2022/06/04 11:56:27;;;;;;;5.05;2.65;;;23.50;99.50;;;;;;4997392;28;20053;-71
2022/06/04 11:59:09;;;;;;;6.05;2.97;;;23.80;99.70;;;;;;5014146;28;20045;-71
2022/06/04 12:01:34;;;;;;;8.40;3.08;;;24.10;99.10;;;;;;5014353;28;20061;-71
2022/06/04 12:04:29;;;;;;;5.82;2.90;;;23.90;99.20;;;;;;5014831;28;20096;-71
2022/06/04 12:07:18;;;;;;;6.18;2.78;;;23.60;99.00;;;;;;4985544;28;20057;-71
2022/06/04 12:09:58;;;;;;;5.05;2.50;;;23.70;99.10;;;;;;4997085;28;20049;-71
2022/06/04 12:12:51;;;;;;;6.35;2.83;;;23.80;99.20;;;;;;5014319;28;20050;-71
2022/06/04 12:15:34;;;;;;;5.55;2.80;;;23.80;99.20;;;;;;5000116;28;20053;-71
2022/06/04 12:18:18;;;;;;;5.70;2.50;;;23.70;99.10;;;;;;5014137;28;20042;-71
2022/06/04 12:26:38;;;;;;;6.57;3.20;;;23.80;98.90;;;;;;5014087;28;20096;-72
2022/06/04 12:29:23;;;;;;;5.90;3.03;;;24.00;99.10;;;;;;5013817;28;20095;-71
2022/06/04 12:32:02;;;;;;;6.18;3.10;;;24.40;99.20;;;;;;5014069;28;20050;-72
2022/06/04 12:34:39;;;;;;;7.57;3.03;;;24.40;98.70;;;;;;4996629;28;20541;-71
2022/06/04 12:37:20;;;;;;;7.85;3.35;;;24.30;99.10;;;;;;4996658;28;20132;-71
2022/06/04 12:39:46;;;;;;;6.70;2.85;;;24.20;99.00;;;;;;5013835;28;20130;-71
2022/06/04 12:42:18;;;;;;;6.22;3.28;;;24.30;99.10;;;;;;5013955;28;20081;-71
2022/06/04 12:44:56;;;;;;;5.47;2.83;;;24.30;99.00;;;;;;5013909;28;20060;-71
2022/06/04 12:47:34;;;;;;;11.82;3.30;;;24.20;99.10;;;;;;5013860;28;20081;-71
2022/06/04 12:50:18;;;;;;;8.70;3.17;;;24.40;99.30;;;;;;4981070;28;20400;-71
2022/06/04 12:53:08;;;;;;;6.10;3.05;;;24.60;98.90;;;;;;4996679;28;20060;-71
2022/06/04 12:55:49;;;;;;;6.40;2.85;;;24.70;99.10;;;;;;5013833;28;20085;-71
2022/06/04 12:58:29;;;;;;;7.70;2.72;;;24.50;98.70;;;;;;5013392;28;20250;-71
2022/06/04 13:00:58;;;;;;;6.80;3.20;;;24.40;98.70;;;;;;4996149;28;20390;-71
2022/06/04 13:03:34;;;;;;;7.18;2.97;;;24.60;99.40;;;;;;4996758;28;20050;-71
2022/06/04 13:06:34;;;;;;;9.75;3.47;;;25.00;98.80;;;;;;4996337;28;20053;-71
2022/06/04 13:09:02;;;;;;;8.63;2.80;;;24.70;98.80;;;;;;5013862;28;20049;-71
2022/06/04 13:11:48;;;;;;;6.70;3.00;;;24.40;98.90;;;;;;4996335;28;20050;-71
2022/06/04 13:14:30;;;;;;;5.90;2.83;;;24.70;99.50;;;;;;5013715;28;20045;-71
2022/06/04 13:16:58;;;;;;;11.32;3.60;;;25.40;98.80;;;;;;5013722;28;20121;-71
2022/06/04 13:19:49;;;;;;;10.40;3.40;;;25.30;98.80;;;;;;4995987;28;20395;-71
2022/06/04 13:22:24;;;;;;;7.78;3.35;;;25.10;98.80;;;;;;5013525;28;20089;-71
2022/06/04 13:24:50;;;;;;;8.33;2.70;;;25.30;98.80;;;;;;4996288;28;20050;-72
2022/06/04 13:27:25;;;;;;;9.13;3.20;;;25.10;98.90;;;;;;4996780;28;20089;-71
2022/06/04 13:29:56;;;;;;;6.55;3.05;;;25.20;98.90;;;;;;4999857;28;20104;-71
2022/06/04 13:32:24;;;;;;;7.82;2.72;;;24.70;99.00;;;;;;4999972;28;20105;-71